createdAt,value
2023-04-18T00:01:33.335Z,7.60
2023-04-18T00:04:00.082Z,7.60
2023-04-18T00:06:27.006Z,7.60
2023-04-18T00:08:53.748Z,7.60
2023-04-18T00:11:20.671Z,7.60
2023-04-18T00:13:47.567Z,7.50
2023-04-18T00:16:14.424Z,7.50
2023-04-18T00:18:41.145Z,7.50
2023-04-18T00:21:08.622Z,7.50
2023-04-18T00:23:35.995Z,7.60
2023-04-18T00:26:02.925Z,7.50
2023-04-18T00:28:29.611Z,7.50
2023-04-18T00:30:56.343Z,7.50
2023-04-18T00:33:23.089Z,7.50
2023-04-18T00:35:49.720Z,7.50
2023-04-18T00:38:16.417Z,7.50
2023-04-18T00:40:43.174Z,7.40
2023-04-18T00:43:12.383Z,7.40
2023-04-18T00:45:39.035Z,7.40
2023-04-18T00:48:05.959Z,7.50
2023-04-18T00:50:32.820Z,7.50
2023-04-18T00:52:59.703Z,7.40
2023-04-18T00:55:26.491Z,7.40
2023-04-18T00:57:53.623Z,7.40
2023-04-18T01:00:20.406Z,7.30
2023-04-18T01:02:49.663Z,7.30
2023-04-18T01:05:18.669Z,7.30
2023-04-18T01:07:45.471Z,7.30
2023-04-18T01:10:12.295Z,7.30
2023-04-18T01:12:39.512Z,7.30
2023-04-18T01:15:07.031Z,7.30
2023-04-18T01:17:36.549Z,7.30
2023-04-18T01:20:06.216Z,7.20
2023-04-18T01:22:33.544Z,7.20
2023-04-18T01:25:00.553Z,7.20
2023-04-18T01:27:27.219Z,7.20
2023-04-18T01:29:53.953Z,7.20
2023-04-18T01:32:21.346Z,7.20
2023-04-18T01:34:48.071Z,7.20
2023-04-18T01:37:14.794Z,7.20
2023-04-18T01:39:41.421Z,7.20
2023-04-18T01:42:08.178Z,7.20
2023-04-18T01:44:34.878Z,7.20
2023-04-18T01:47:01.695Z,7.20
2023-04-18T01:49:28.557Z,7.20
2023-04-18T01:51:55.328Z,7.20
2023-04-18T01:54:22.051Z,7.30
2023-04-18T01:56:48.709Z,7.30
2023-04-18T01:59:15.350Z,7.30
2023-04-18T02:01:42.322Z,7.30
2023-04-18T02:04:09.002Z,7.30
2023-04-18T02:06:35.961Z,7.30
2023-04-18T02:09:02.612Z,7.30
2023-04-18T02:11:30.022Z,7.30
2023-04-18T02:13:56.734Z,7.30
2023-04-18T02:16:23.466Z,7.30
2023-04-18T02:18:52.682Z,7.30
2023-04-18T02:21:19.364Z,7.40
2023-04-18T02:23:46.081Z,7.40
2023-04-18T02:26:12.726Z,7.40
2023-04-18T02:28:39.643Z,7.40
2023-04-18T02:31:07.365Z,7.40
2023-04-18T02:33:34.065Z,7.30
2023-04-18T02:36:01.759Z,7.30
2023-04-18T02:38:28.501Z,7.30
2023-04-18T02:40:56.014Z,7.30
2023-04-18T02:43:22.725Z,7.20
2023-04-18T02:45:49.540Z,7.20
2023-04-18T02:48:16.291Z,7.20
2023-04-18T02:50:42.974Z,7.20
2023-04-18T02:53:09.627Z,7.30
2023-04-18T02:55:37.424Z,7.30
2023-04-18T02:58:04.052Z,7.20
2023-04-18T03:00:30.816Z,7.30
2023-04-18T03:02:57.625Z,7.30
2023-04-18T03:05:24.499Z,7.40
2023-04-18T03:07:51.195Z,7.40
2023-04-18T03:10:17.988Z,7.40
2023-04-18T03:12:44.643Z,7.50
2023-04-18T03:15:11.782Z,7.60
2023-04-18T03:17:39.114Z,7.60
2023-04-18T03:20:06.408Z,7.60
2023-04-18T03:22:33.038Z,7.60
2023-04-18T03:25:00.682Z,7.60
2023-04-18T03:27:27.364Z,7.60
2023-04-18T03:29:54.045Z,7.70
2023-04-18T03:32:20.921Z,7.70
2023-04-18T03:34:47.887Z,7.70
2023-04-18T03:37:14.686Z,7.70
2023-04-18T03:39:41.343Z,7.80
2023-04-18T03:42:07.981Z,7.80
2023-04-18T03:44:34.761Z,7.80
2023-04-18T03:47:01.576Z,7.80
2023-04-18T03:49:28.245Z,7.80
2023-04-18T03:51:55.023Z,7.80
2023-04-18T03:54:21.699Z,7.80
2023-04-18T03:56:48.401Z,7.80
2023-04-18T03:59:15.670Z,7.90
2023-04-18T04:01:42.503Z,7.90
2023-04-18T04:04:11.856Z,7.90
2023-04-18T04:06:39.024Z,7.90
2023-04-18T04:09:05.662Z,7.90
2023-04-18T04:11:32.357Z,7.90
2023-04-18T04:13:59.024Z,7.90
2023-04-18T04:16:25.847Z,8.00
2023-04-18T04:18:52.511Z,8.00
2023-04-18T04:21:20.657Z,8.10
2023-04-18T04:23:48.022Z,8.10
2023-04-18T04:26:17.385Z,8.10
2023-04-18T04:28:46.443Z,8.10
2023-04-18T04:31:13.231Z,8.20
2023-04-18T04:33:40.974Z,8.20
2023-04-18T04:36:08.875Z,8.20
2023-04-18T04:38:38.224Z,8.20
2023-04-18T04:41:09.208Z,8.30
2023-04-18T04:43:36.248Z,8.30
2023-04-18T04:46:04.099Z,8.30
2023-04-18T04:48:30.852Z,8.30
2023-04-18T04:50:58.660Z,8.40
2023-04-18T04:53:27.953Z,8.50
2023-04-18T04:55:54.700Z,8.50
2023-04-18T04:58:21.415Z,8.50
2023-04-18T05:00:48.172Z,8.50
2023-04-18T05:03:14.936Z,8.50
2023-04-18T05:05:41.885Z,8.50
2023-04-18T05:08:08.639Z,8.50
2023-04-18T05:10:37.034Z,8.60
2023-04-18T05:13:04.251Z,8.70
2023-04-18T05:15:31.468Z,8.80
2023-04-18T05:17:58.837Z,8.90
2023-04-18T05:20:25.617Z,9.00
2023-04-18T05:22:52.366Z,9.10
2023-04-18T05:25:19.728Z,9.10
2023-04-18T05:27:47.037Z,9.10
2023-04-18T05:30:13.895Z,9.10
2023-04-18T05:32:40.710Z,9.10
2023-04-18T05:35:08.041Z,9.10
2023-04-18T05:37:34.722Z,9.10
2023-04-18T05:40:01.503Z,9.20
2023-04-18T05:42:28.144Z,9.20
2023-04-18T05:44:54.766Z,9.20
2023-04-18T05:47:21.522Z,9.20
2023-04-18T05:49:48.172Z,9.30
2023-04-18T05:52:14.939Z,9.30
2023-04-18T05:54:41.597Z,9.40
2023-04-18T05:57:08.268Z,9.40
2023-04-18T05:59:34.908Z,9.40
2023-04-18T06:02:01.923Z,9.40
2023-04-18T06:04:28.808Z,9.20
2023-04-18T06:06:55.756Z,9.10
2023-04-18T06:09:22.406Z,9.20
2023-04-18T06:11:49.139Z,9.20
2023-04-18T06:14:16.095Z,9.10
2023-04-18T06:16:43.077Z,9.10
2023-04-18T06:19:09.760Z,9.10
2023-04-18T06:21:36.395Z,9.20
2023-04-18T06:24:03.100Z,9.20
2023-04-18T06:26:31.975Z,9.20
2023-04-18T06:28:58.685Z,9.20
2023-04-18T06:31:25.512Z,9.20
2023-04-18T06:33:52.265Z,9.20
2023-04-18T06:36:19.356Z,9.30
2023-04-18T06:38:46.021Z,9.30
2023-04-18T06:41:14.484Z,9.40
2023-04-18T06:43:49.170Z,9.40
2023-04-18T06:46:26.480Z,9.40
2023-04-18T06:48:53.210Z,9.50
2023-04-18T06:51:19.877Z,9.70
2023-04-18T06:53:47.518Z,9.70
2023-04-18T06:56:14.205Z,9.80
2023-04-18T06:58:40.916Z,9.80
2023-04-18T07:01:07.641Z,9.70
2023-04-18T07:03:34.471Z,9.70
2023-04-18T07:06:01.359Z,9.70
2023-04-18T07:08:28.041Z,9.80
2023-04-18T07:10:54.717Z,9.90
2023-04-18T07:13:21.368Z,9.90
2023-04-18T07:15:48.031Z,9.80
2023-04-18T07:18:20.504Z,9.90
2023-04-18T07:20:53.327Z,9.90
2023-04-18T07:23:19.974Z,10.10
2023-04-18T07:25:46.684Z,10.20
2023-04-18T07:28:13.327Z,10.40
2023-04-18T07:30:40.019Z,10.40
2023-04-18T07:33:06.820Z,10.40
2023-04-18T07:35:33.859Z,10.40
2023-04-18T07:38:01.082Z,10.40
2023-04-18T07:40:27.827Z,10.30
2023-04-18T07:42:54.471Z,10.50
2023-04-18T07:45:21.350Z,10.60
2023-04-18T07:47:48.051Z,10.70
2023-04-18T07:50:14.751Z,10.90
2023-04-18T07:52:41.379Z,10.90
2023-04-18T07:55:08.472Z,10.80
2023-04-18T07:57:35.266Z,11.00
2023-04-18T08:00:02.086Z,11.10
2023-04-18T08:02:28.928Z,11.20
2023-04-18T08:04:56.180Z,11.30
2023-04-18T08:07:23.065Z,11.40
2023-04-18T08:09:49.757Z,11.50
2023-04-18T08:12:16.465Z,11.60
2023-04-18T08:14:43.177Z,11.70
2023-04-18T08:17:09.869Z,11.80
2023-04-18T08:19:36.504Z,11.90
2023-04-18T08:22:10.599Z,11.90
2023-04-18T08:24:42.952Z,12.30
2023-04-18T08:27:15.294Z,12.30
2023-04-18T08:29:42.115Z,12.30
2023-04-18T08:32:08.834Z,12.30
2023-04-18T08:34:38.456Z,12.50
2023-04-18T08:37:05.676Z,12.80
2023-04-18T08:39:32.350Z,12.70
2023-04-18T08:42:00.158Z,13.00
2023-04-18T08:44:30.504Z,13.10
2023-04-18T08:46:57.601Z,13.50
2023-04-18T08:49:24.848Z,13.60
2023-04-18T08:51:52.345Z,13.90
2023-04-18T08:54:20.821Z,14.30
2023-04-18T08:56:47.828Z,14.50
2023-04-18T08:59:14.695Z,14.30
2023-04-18T09:01:59.298Z,14.00
2023-04-18T09:04:48.497Z,13.70
2023-04-18T09:07:16.965Z,13.70
2023-04-18T09:09:56.560Z,14.20
2023-04-18T09:12:25.375Z,14.20
2023-04-18T09:14:57.846Z,14.30
2023-04-18T09:17:34.546Z,14.50
2023-04-18T09:20:02.363Z,14.60
2023-04-18T09:22:50.314Z,14.60
2023-04-18T09:25:40.817Z,14.50
2023-04-18T09:28:31.790Z,14.30
2023-04-18T09:31:09.297Z,14.10
2023-04-18T09:33:37.013Z,14.30
2023-04-18T09:36:21.359Z,14.30
2023-04-18T09:38:49.845Z,14.30
2023-04-18T09:41:19.904Z,14.00
2023-04-18T09:43:47.961Z,14.00
2023-04-18T09:46:17.456Z,14.10
2023-04-18T09:48:44.238Z,14.10
2023-04-18T09:51:14.697Z,14.00
2023-04-18T09:53:44.597Z,14.10
2023-04-18T09:56:31.950Z,13.90
2023-04-18T09:59:08.373Z,14.00
2023-04-18T10:01:35.987Z,14.10
2023-04-18T10:04:06.359Z,14.10
2023-04-18T10:06:35.077Z,14.20
2023-04-18T10:09:04.423Z,14.30
2023-04-18T10:11:31.968Z,14.40
2023-04-18T10:14:03.337Z,14.40
2023-04-18T10:16:32.126Z,14.30
2023-04-18T10:19:29.993Z,14.30
2023-04-18T10:21:58.756Z,14.20
2023-04-18T10:24:54.449Z,14.30
2023-04-18T10:27:48.808Z,14.30
2023-04-18T10:30:16.611Z,14.10
2023-04-18T10:32:43.535Z,14.00
2023-04-18T10:35:11.221Z,14.10
2023-04-18T10:37:59.512Z,14.10
2023-04-18T10:40:33.567Z,14.10
2023-04-18T10:43:00.476Z,14.10
2023-04-18T10:45:29.688Z,14.20
2023-04-18T10:48:25.464Z,14.10
2023-04-18T10:51:14.811Z,14.30
2023-04-18T10:53:53.867Z,14.20
2023-04-18T10:56:21.628Z,14.10
2023-04-18T10:58:51.409Z,13.80
2023-04-18T11:01:38.033Z,13.80
2023-04-18T11:04:11.315Z,13.80
2023-04-18T11:06:53.118Z,14.00
2023-04-18T11:09:19.829Z,14.10
2023-04-18T11:11:46.511Z,14.20
2023-04-18T11:14:13.382Z,14.30
2023-04-18T11:16:40.533Z,14.30
2023-04-18T11:19:25.795Z,14.30
2023-04-18T11:21:52.723Z,14.40
2023-04-18T11:24:24.078Z,14.80
2023-04-18T11:26:55.704Z,14.80
2023-04-18T11:29:22.929Z,14.60
2023-04-18T11:31:55.852Z,14.80
2023-04-18T11:34:31.600Z,14.90
2023-04-18T11:36:58.334Z,15.10
2023-04-18T11:39:25.030Z,15.20
2023-04-18T11:41:51.848Z,15.20
2023-04-18T11:44:25.814Z,15.10
2023-04-18T11:46:53.286Z,15.20
2023-04-18T11:49:32.926Z,15.50
2023-04-18T11:52:01.128Z,16.00
2023-04-18T11:54:48.095Z,16.10
2023-04-18T11:57:21.023Z,15.70
2023-04-18T11:59:52.666Z,15.70
2023-04-18T12:02:20.442Z,16.00
2023-04-18T12:04:53.884Z,16.30
2023-04-18T12:07:42.055Z,16.30
2023-04-18T12:10:20.872Z,16.30
2023-04-18T12:12:53.125Z,16.30
2023-04-18T12:15:21.723Z,16.10
2023-04-18T12:17:48.564Z,15.80
2023-04-18T12:20:16.088Z,15.50
2023-04-18T12:22:49.575Z,15.70
2023-04-18T12:25:26.942Z,15.50
2023-04-18T12:28:03.486Z,15.30
2023-04-18T12:30:31.851Z,15.20
2023-04-18T12:33:03.069Z,15.10
2023-04-18T12:35:32.913Z,15.30
2023-04-18T12:38:02.203Z,15.50
2023-04-18T12:40:30.056Z,15.40
2023-04-18T12:42:56.918Z,15.20
2023-04-18T12:45:24.402Z,15.10
2023-04-18T12:47:52.633Z,15.00
2023-04-18T12:50:21.836Z,15.00
2023-04-18T12:52:48.874Z,15.00
2023-04-18T12:55:15.774Z,15.00
2023-04-18T12:57:42.883Z,14.80
2023-04-18T13:00:11.190Z,14.70
2023-04-18T13:02:40.308Z,14.60
2023-04-18T13:05:08.823Z,14.50
2023-04-18T13:07:38.079Z,14.40
2023-04-18T13:10:05.375Z,14.40
2023-04-18T13:12:32.038Z,14.30
2023-04-18T13:14:58.742Z,14.20
2023-04-18T13:17:25.914Z,14.10
2023-04-18T13:19:52.650Z,14.10
2023-04-18T13:22:20.446Z,14.00
2023-04-18T13:24:47.534Z,14.10
2023-04-18T13:27:14.855Z,13.90
2023-04-18T13:29:42.652Z,13.90
2023-04-18T13:32:09.674Z,13.90
2023-04-18T13:34:44.264Z,13.70
2023-04-18T13:37:11.241Z,13.60
2023-04-18T13:39:37.931Z,13.70
2023-04-18T13:42:04.726Z,13.60
2023-04-18T13:44:31.721Z,13.60
2023-04-18T13:46:58.478Z,13.70
2023-04-18T13:49:25.204Z,14.00
2023-04-18T13:51:57.233Z,14.10
2023-04-18T13:54:28.398Z,14.30
2023-04-18T13:56:57.103Z,14.20
2023-04-18T13:59:25.168Z,14.30
2023-04-18T14:01:52.608Z,14.70
2023-04-18T14:04:21.665Z,14.60
2023-04-18T14:06:48.974Z,14.60
2023-04-18T14:09:16.663Z,14.60
2023-04-18T14:11:43.494Z,14.60
2023-04-18T14:14:10.184Z,14.40
2023-04-18T14:16:37.010Z,14.30
2023-04-18T14:19:03.721Z,14.40
2023-04-18T14:21:31.073Z,14.20
2023-04-18T14:23:57.838Z,14.40
2023-04-18T14:26:24.505Z,14.50
2023-04-18T14:28:51.445Z,14.70
2023-04-18T14:31:18.175Z,15.10
2023-04-18T14:33:44.906Z,15.00
2023-04-18T14:36:11.802Z,15.10
2023-04-18T14:38:38.548Z,14.90
2023-04-18T14:41:05.582Z,14.90
2023-04-18T14:43:32.462Z,15.00
2023-04-18T14:45:59.883Z,15.20
2023-04-18T14:48:27.460Z,15.40
2023-04-18T14:51:02.590Z,15.40
2023-04-18T14:53:29.605Z,14.90
2023-04-18T14:55:56.460Z,14.70
2023-04-18T14:58:23.162Z,14.40
2023-04-18T15:00:51.354Z,14.20
2023-04-18T15:03:18.107Z,14.10
2023-04-18T15:05:46.522Z,13.90
2023-04-18T15:08:14.537Z,13.90
2023-04-18T15:10:42.480Z,13.90
2023-04-18T15:13:10.065Z,13.90
2023-04-18T15:15:37.876Z,13.80
2023-04-18T15:18:04.755Z,13.80
2023-04-18T15:20:31.751Z,13.80
2023-04-18T15:22:58.386Z,13.80
2023-04-18T15:25:26.077Z,13.70
2023-04-18T15:27:53.195Z,13.60
2023-04-18T15:30:20.217Z,13.60
2023-04-18T15:32:48.335Z,13.60
2023-04-18T15:35:15.146Z,13.80
2023-04-18T15:37:41.895Z,13.90
2023-04-18T15:40:11.110Z,13.70
2023-04-18T15:42:37.780Z,13.70
2023-04-18T15:45:04.977Z,13.40
2023-04-18T15:47:34.009Z,13.30
2023-04-18T15:50:00.937Z,12.90
2023-04-18T15:52:27.568Z,12.80
2023-04-18T15:54:54.519Z,12.70
2023-04-18T15:57:21.721Z,12.70
2023-04-18T15:59:48.377Z,12.70
2023-04-18T16:02:15.191Z,12.60
2023-04-18T16:04:41.969Z,12.50
2023-04-18T16:07:09.039Z,12.50
2023-04-18T16:09:35.714Z,12.40
2023-04-18T16:12:03.241Z,12.50
2023-04-18T16:14:31.161Z,12.30
2023-04-18T16:16:58.657Z,12.50
2023-04-18T16:19:25.315Z,12.60
2023-04-18T16:21:52.162Z,12.70
2023-04-18T16:24:18.829Z,12.50
2023-04-18T16:26:45.626Z,12.50
2023-04-18T16:29:12.327Z,12.40
2023-04-18T16:31:39.142Z,12.40
2023-04-18T16:34:05.879Z,12.30
2023-04-18T16:36:35.868Z,12.20
2023-04-18T16:39:02.549Z,12.10
2023-04-18T16:41:29.192Z,12.00
2023-04-18T16:43:55.827Z,11.90
2023-04-18T16:46:22.608Z,11.80
2023-04-18T16:48:51.802Z,11.90
2023-04-18T16:51:19.167Z,11.90
2023-04-18T16:53:46.684Z,12.00
2023-04-18T16:56:13.371Z,12.00
2023-04-18T16:58:40.515Z,12.00
2023-04-18T17:01:08.198Z,12.00
2023-04-18T17:03:35.074Z,12.00
2023-04-18T17:06:01.803Z,12.00
2023-04-18T17:08:32.921Z,11.90
2023-04-18T17:10:59.681Z,11.80
2023-04-18T17:13:27.149Z,11.90
2023-04-18T17:15:54.233Z,11.90
2023-04-18T17:18:21.011Z,11.80
2023-04-18T17:20:47.927Z,11.80
2023-04-18T17:23:14.743Z,11.80
2023-04-18T17:25:41.553Z,11.80
2023-04-18T17:28:08.176Z,11.60
2023-04-18T17:30:34.864Z,11.50
2023-04-18T17:33:01.510Z,11.50
2023-04-18T17:35:28.222Z,11.40
2023-04-18T17:37:54.858Z,11.30
2023-04-18T17:40:21.585Z,11.30
2023-04-18T17:42:48.390Z,11.20
2023-04-18T17:45:15.088Z,11.20
2023-04-18T17:47:41.748Z,11.20
2023-04-18T17:50:09.007Z,11.10
2023-04-18T17:52:35.694Z,11.10
2023-04-18T17:55:02.532Z,11.10
2023-04-18T17:57:30.416Z,11.00
2023-04-18T17:59:57.245Z,11.00
2023-04-18T18:02:24.125Z,10.90
2023-04-18T18:04:51.558Z,10.90
2023-04-18T18:07:18.374Z,10.80
2023-04-18T18:09:47.809Z,10.80
2023-04-18T18:12:14.499Z,10.90
2023-04-18T18:14:41.234Z,10.80
2023-04-18T18:17:07.937Z,10.70
2023-04-18T18:19:36.332Z,10.60
2023-04-18T18:22:03.093Z,10.60
2023-04-18T18:24:29.857Z,10.60
2023-04-18T18:26:57.978Z,10.60
2023-04-18T18:29:24.677Z,10.60
2023-04-18T18:31:51.393Z,10.50
2023-04-18T18:34:19.796Z,10.50
2023-04-18T18:36:47.130Z,10.50
2023-04-18T18:39:16.336Z,10.50
2023-04-18T18:41:43.335Z,10.40
2023-04-18T18:44:10.146Z,10.40
2023-04-18T18:46:36.899Z,10.50
2023-04-18T18:49:03.788Z,10.40
2023-04-18T18:51:30.913Z,10.40
2023-04-18T18:53:57.927Z,10.40
2023-04-18T18:56:24.709Z,10.40
2023-04-18T18:58:53.222Z,10.40
2023-04-18T19:01:20.517Z,10.50
2023-04-18T19:03:47.307Z,10.50
2023-04-18T19:06:14.755Z,10.50
2023-04-18T19:08:41.405Z,10.50
2023-04-18T19:11:08.722Z,10.50
2023-04-18T19:13:35.403Z,10.40
2023-04-18T19:16:02.122Z,10.40
2023-04-18T19:18:28.825Z,10.40
2023-04-18T19:20:55.466Z,10.40
2023-04-18T19:23:23.767Z,10.40
2023-04-18T19:25:51.214Z,10.40
2023-04-18T19:28:18.448Z,10.40
2023-04-18T19:30:46.336Z,10.40
2023-04-18T19:33:13.042Z,10.40
2023-04-18T19:35:39.947Z,10.30
2023-04-18T19:38:06.709Z,10.30
2023-04-18T19:40:33.346Z,10.30
2023-04-18T19:42:59.994Z,10.30
2023-04-18T19:45:26.690Z,10.30
2023-04-18T19:47:53.376Z,10.40
2023-04-18T19:50:20.123Z,10.40
2023-04-18T19:52:46.860Z,10.40
2023-04-18T19:55:13.582Z,10.40
2023-04-18T19:57:41.379Z,10.40
2023-04-18T20:00:12.546Z,10.30
2023-04-18T20:02:42.719Z,10.30
2023-04-18T20:05:10.092Z,10.30
2023-04-18T20:07:37.065Z,10.30
2023-04-18T20:10:04.509Z,10.30
2023-04-18T20:12:31.367Z,10.30
2023-04-18T20:14:58.960Z,10.30
2023-04-18T20:17:26.134Z,10.20
2023-04-18T20:19:52.964Z,10.30
2023-04-18T20:22:19.939Z,10.30
2023-04-18T20:24:48.537Z,10.20
2023-04-18T20:27:15.285Z,10.20
2023-04-18T20:29:41.978Z,10.20
2023-04-18T20:32:08.672Z,10.20
2023-04-18T20:34:35.881Z,10.20
2023-04-18T20:37:02.623Z,10.10
2023-04-18T20:39:29.496Z,10.10
2023-04-18T20:41:57.673Z,10.20
2023-04-18T20:44:24.821Z,10.10
2023-04-18T20:46:54.760Z,10.20
2023-04-18T20:49:21.502Z,10.20
2023-04-18T20:51:48.165Z,10.20
2023-04-18T20:54:15.097Z,10.10
2023-04-18T20:56:42.068Z,10.10
2023-04-18T20:59:08.803Z,10.10
2023-04-18T21:01:37.041Z,10.10
2023-04-18T21:04:04.154Z,10.20
2023-04-18T21:06:31.042Z,10.20
2023-04-18T21:08:57.676Z,10.20
2023-04-18T21:11:24.324Z,10.20
2023-04-18T21:13:50.967Z,10.30
2023-04-18T21:16:17.736Z,10.30
2023-04-18T21:18:44.541Z,10.20
2023-04-18T21:21:11.775Z,10.30
2023-04-18T21:23:42.660Z,10.30
2023-04-18T21:26:12.436Z,10.30
2023-04-18T21:28:58.890Z,10.30
2023-04-18T21:31:26.995Z,10.30
2023-04-18T21:33:55.236Z,10.40
2023-04-18T21:36:23.014Z,10.30
2023-04-18T21:38:53.320Z,10.20
2023-04-18T21:41:20.839Z,10.20
2023-04-18T21:43:47.981Z,10.20
2023-04-18T21:46:15.082Z,10.10
2023-04-18T21:48:43.581Z,10.10
2023-04-18T21:51:11.601Z,10.10
2023-04-18T21:53:39.145Z,10.00
2023-04-18T21:56:06.676Z,10.00
2023-04-18T21:58:33.613Z,10.00
2023-04-18T22:01:00.521Z,9.90
2023-04-18T22:03:28.617Z,9.90
2023-04-18T22:05:58.757Z,9.90
2023-04-18T22:08:26.231Z,9.90
2023-04-18T22:10:57.802Z,9.80
2023-04-18T22:13:26.126Z,9.80
2023-04-18T22:15:52.877Z,9.80
2023-04-18T22:18:19.564Z,9.80
2023-04-18T22:20:46.889Z,9.80
2023-04-18T22:23:14.004Z,9.70
2023-04-18T22:25:40.884Z,9.70
2023-04-18T22:28:07.716Z,9.70
2023-04-18T22:30:34.634Z,9.60
2023-04-18T22:33:01.546Z,9.60
2023-04-18T22:35:28.453Z,9.60
2023-04-18T22:37:55.796Z,9.60
2023-04-18T22:40:22.498Z,9.60
2023-04-18T22:42:51.802Z,9.60
2023-04-18T22:45:19.401Z,9.60
2023-04-18T22:47:46.655Z,9.60
2023-04-18T22:50:14.005Z,9.60
2023-04-18T22:52:41.127Z,9.60
2023-04-18T22:55:08.530Z,9.60
2023-04-18T22:57:35.389Z,9.60
2023-04-18T23:00:02.350Z,9.60
2023-04-18T23:02:29.244Z,9.50
2023-04-18T23:04:58.867Z,9.40
2023-04-18T23:07:25.820Z,9.40
2023-04-18T23:09:52.449Z,9.30
2023-04-18T23:12:19.245Z,9.40
2023-04-18T23:14:45.907Z,9.40
2023-04-18T23:17:12.567Z,9.40
2023-04-18T23:19:39.284Z,9.40
2023-04-18T23:22:06.015Z,9.30
2023-04-18T23:24:32.701Z,9.30
2023-04-18T23:26:59.368Z,9.30
2023-04-18T23:29:26.012Z,9.30
2023-04-18T23:31:52.723Z,9.30
2023-04-18T23:34:19.453Z,9.30
2023-04-18T23:36:46.604Z,9.20
2023-04-18T23:39:13.257Z,9.20
2023-04-18T23:41:39.924Z,9.20
2023-04-18T23:44:06.633Z,9.10
2023-04-18T23:46:35.076Z,9.10
2023-04-18T23:49:03.090Z,9.10
2023-04-18T23:51:29.811Z,9.10
2023-04-18T23:53:56.486Z,9.10
2023-04-18T23:56:23.256Z,9.10
2023-04-18T23:58:50.121Z,9.10
